Ypenburg, Netherlands
Current Conditions -  °F | °C
As of 1:55 PM on Thursday 27 Nov 2014 (Local Time) from EHRD Reporting Station
Overcast Overcast  
Wind Chill: 45°   Ceiling: 900
Heat Index: 48°   Visibility: 6mi
Dew Point: 45°   Wind: 8mph
Humidity: 87%   Direction: 100°E
Pressure: 29.71"   Gusts: NA
Location:  52.04°N, 4.37°E
Report Text: EHRD 271255Z AUTO 10007KT 9000 OVC009 09/07 Q1006 NOSIG
Loading
Personal Weather Stations






























Interactive Weather Map New forecast layout! Learn more

10-Day Weather Forecast

Advertisements
Track Severe Weather on mobile